Kingsbury, Texas
Current Conditions -  °F | °C
As of 4:51 AM on Thursday 27 Nov 2014 (Local Time) from KBAZ Reporting Station
Clear Clear  
Wind Chill: 44°   Ceiling: Unl
Heat Index: 49°   Visibility: 10mi
Dew Point: 36°   Wind: 12mph
Humidity: 61%   Direction: 20°NNE
Pressure: 30.4"   Gusts: NA
Location:  29.65°N, 97.83°W
Report Text: KBAZ 271051Z AUTO 02010KT 10SM CLR 09/02 A3040 RMK AO2 SLP292 T00940022
Loading
Personal Weather Stations






























Interactive Weather Map New forecast layout! Learn more

10-Day Weather Forecast

Advertisements
Track Severe Weather on mobile